Amstetten, Austria

6:47 AM CEST on September 05, 2015 (GMT +0200)
Grein an der Donau | | Change Station
CLOSE
Current Station
Personal Weather Station
Location: Grein, OBERöSTERREICH
Elevation: 794 ft
Nearby Weather Stations

Elev 794 ft 48.23 °N, 14.85 °E | Updated 11 seconds ago

Mostly Cloudy
Mostly Cloudy
58.3 °F
Feels Like 58.3 °F
N
0.0
Wind Variable Wind from NE
Gusts 0.0 mph

Today
High -- | Low -- °F
--% Chance of Precip.
Yesterday
High -- | Low -- °F
Precip. -- in
6:23 AM 7:34 PM
Waning Gibbous, 52% visible
Pressure 29.95 in
Visibility 6.2 miles
Clouds Few 4000 ft
Scattered Clouds 9000 ft
Mostly Cloudy 14000 ft
Dew Point 55 °F
Humidity 90%
Rainfall 0.02 in
Snow Depth Not available.
UV 0.0 out of 12
Pollen Not available.
Air Quality Not available.
Flu Activity Not available.
METAR LOWL 050420Z VRB01KT 9999 FEW040 SCT090 BKN140 14/13 Q1014 TEMPO SHRA
Pressure 29.95 in
Visibility 6.2 miles
Clouds Few 4000 ft
Scattered Clouds 9000 ft
Mostly Cloudy 14000 ft
Dew Point 55 °F
Humidity 90%
Rainfall 0.02 in
Snow Depth Not available.
UV 0.0 out of 12
Pollen Not available.
Air Quality Not available.
Flu Activity Not available.
METAR LOWL 050420Z VRB01KT 9999 FEW040 SCT090 BKN140 14/13 Q1014 TEMPO SHRA

10-Day Weather Forecast

×

Almanac

Astronomy

Sep. 05, 2015 Rise Set
Actual Time
Civil Twilight
Nautical Twilight
Astronomical Twilight
Moon
Length of Visible Light
Length of Day
Tomorrow will be .
, % of the Moon is Illuminated

Today's Extremes

Country Highs Country Lows

Community

WunderPhotos

Upload Photos

1,852,426 photos uploaded!

WunderBlogs® & News

Nearby

Air Quality

  Air Quality AQ Index Pollutant
Not available.

Snow Depth

Station Depth Elevation

Earthquake Activity

City Distance Mag. Time & Date
Minimum magnitude displayed is 2.5.

Coastal Water Temperatures

Place Temperature

Stations

Nearby Weather Stations

Station Location Temp. Windchill Dew Point Humidity Wind Precip. Elev Updated Type